createdAt,value
2023-03-20T00:02:32.079Z,82.83
2023-03-20T00:07:57.570Z,83.32
2023-03-20T00:13:28.648Z,83.93
2023-03-20T00:18:53.283Z,84.64
2023-03-20T00:24:20.604Z,85.06
2023-03-20T00:29:46.205Z,86.12
2023-03-20T00:35:19.610Z,86.36
2023-03-20T00:40:45.028Z,86.96
2023-03-20T00:46:13.837Z,87.30
2023-03-20T00:51:38.611Z,88.26
2023-03-20T00:57:07.153Z,88.52
2023-03-20T01:02:32.082Z,89.34
2023-03-20T01:07:57.171Z,90.00
2023-03-20T01:13:24.813Z,90.79
2023-03-20T01:18:49.133Z,91.17
2023-03-20T01:24:13.727Z,91.60
2023-03-20T01:29:39.285Z,91.33
2023-03-20T01:35:04.442Z,91.18
2023-03-20T01:40:37.998Z,91.16
2023-03-20T01:46:18.592Z,90.89
2023-03-20T01:51:43.057Z,90.80
2023-03-20T01:57:17.589Z,90.48
2023-03-20T02:02:47.617Z,90.42
2023-03-20T02:08:37.335Z,90.25
2023-03-20T02:14:02.119Z,90.20
2023-03-20T02:19:52.600Z,90.29
2023-03-20T02:25:51.655Z,90.21
2023-03-20T02:31:56.951Z,89.91
2023-03-20T02:37:47.414Z,89.53
2023-03-20T02:43:25.732Z,89.22
2023-03-20T02:49:08.987Z,89.38
2023-03-20T02:54:44.354Z,89.56
2023-03-20T03:00:23.964Z,89.66
2023-03-20T03:05:55.024Z,89.91
2023-03-20T03:11:19.484Z,90.00
2023-03-20T03:16:46.701Z,89.85
2023-03-20T03:22:10.617Z,89.74
2023-03-20T03:27:41.492Z,89.96
2023-03-20T03:33:33.107Z,89.87
2023-03-20T03:39:19.279Z,90.17
2023-03-20T03:45:09.417Z,90.07
2023-03-20T03:50:49.059Z,90.29
2023-03-20T03:56:17.196Z,90.40
2023-03-20T04:01:44.716Z,90.33
2023-03-20T04:07:08.656Z,90.14
2023-03-20T04:12:43.663Z,90.04
2023-03-20T04:18:08.919Z,90.34
2023-03-20T04:23:35.950Z,90.33
2023-03-20T04:29:02.014Z,90.35
2023-03-20T04:34:44.298Z,90.49
2023-03-20T04:40:24.956Z,90.49
2023-03-20T04:45:49.453Z,90.28
2023-03-20T04:51:14.738Z,90.51
2023-03-20T04:56:46.208Z,90.71
2023-03-20T05:02:15.414Z,90.91
2023-03-20T05:07:39.522Z,91.07
2023-03-20T05:13:06.620Z,91.04
2023-03-20T05:18:48.407Z,90.75
2023-03-20T05:24:33.910Z,90.42
2023-03-20T05:30:14.786Z,90.39
2023-03-20T05:36:14.184Z,90.34
2023-03-20T05:41:52.293Z,90.35
2023-03-20T05:47:35.201Z,90.46
2023-03-20T05:53:19.497Z,90.47
2023-03-20T05:59:08.254Z,90.40
2023-03-20T06:04:56.414Z,90.24
2023-03-20T06:10:24.794Z,90.28
2023-03-20T06:15:48.883Z,90.20
2023-03-20T06:21:14.430Z,89.94
2023-03-20T06:26:39.359Z,89.99
2023-03-20T06:32:13.790Z,89.93
2023-03-20T06:37:38.663Z,89.65
2023-03-20T06:43:06.234Z,89.36
2023-03-20T06:48:38.573Z,89.05
2023-03-20T06:54:03.633Z,88.67
2023-03-20T06:59:28.567Z,88.23
2023-03-20T07:04:55.743Z,88.12
2023-03-20T07:10:24.021Z,87.82
2023-03-20T07:16:03.311Z,87.64
2023-03-20T07:21:30.390Z,87.41
2023-03-20T07:26:55.516Z,87.13
2023-03-20T07:32:19.764Z,86.73
2023-03-20T07:37:50.641Z,86.49
2023-03-20T07:43:18.625Z,86.23
2023-03-20T07:49:09.046Z,85.70
2023-03-20T07:54:33.321Z,85.31
2023-03-20T07:59:57.648Z,84.84
2023-03-20T08:05:21.446Z,84.31
2023-03-20T08:10:46.888Z,83.46
2023-03-20T08:16:11.190Z,83.04
2023-03-20T08:21:35.039Z,82.73
2023-03-20T08:26:59.093Z,82.02
2023-03-20T08:32:23.135Z,81.42
2023-03-20T08:37:47.227Z,80.32
2023-03-20T08:43:12.491Z,79.97
2023-03-20T08:48:37.143Z,80.00
2023-03-20T08:54:01.552Z,79.25
2023-03-20T08:59:25.553Z,79.10
2023-03-20T09:04:49.683Z,78.99
2023-03-20T09:10:13.903Z,78.94
2023-03-20T09:15:39.283Z,78.05
2023-03-20T09:21:04.203Z,77.84
2023-03-20T09:26:28.104Z,77.53
2023-03-20T09:31:54.042Z,76.92
2023-03-20T09:37:18.138Z,75.75
2023-03-20T09:42:59.191Z,74.81
2023-03-20T09:48:56.866Z,74.70
2023-03-20T09:54:52.728Z,73.54
2023-03-20T10:00:20.749Z,73.71
2023-03-20T10:06:04.805Z,74.61
2023-03-20T10:11:31.955Z,73.72
2023-03-20T10:17:05.554Z,72.95
2023-03-20T10:22:36.745Z,72.03
2023-03-20T10:28:04.531Z,71.72
2023-03-20T10:33:56.297Z,70.76
2023-03-20T10:39:36.362Z,70.74
2023-03-20T10:45:28.190Z,70.13
2023-03-20T10:50:55.892Z,69.48
2023-03-20T10:56:31.964Z,68.38
2023-03-20T11:01:56.882Z,68.35
2023-03-20T11:07:24.045Z,67.82
2023-03-20T11:12:49.901Z,67.93
2023-03-20T11:18:16.150Z,67.46
2023-03-20T11:23:41.131Z,68.06
2023-03-20T11:29:12.229Z,68.58
2023-03-20T11:34:38.353Z,69.20
2023-03-20T11:40:08.433Z,69.35
2023-03-20T11:45:38.260Z,70.18
2023-03-20T11:51:09.459Z,72.04
2023-03-20T11:56:35.853Z,71.24
2023-03-20T12:02:05.797Z,73.45
2023-03-20T12:07:38.483Z,78.37
2023-03-20T12:13:12.498Z,80.58
2023-03-20T12:18:42.361Z,81.97
2023-03-20T12:24:16.094Z,83.40
2023-03-20T12:29:50.478Z,85.54
2023-03-20T12:35:31.727Z,87.06
2023-03-20T12:41:13.569Z,87.67
2023-03-20T12:47:27.810Z,87.28
2023-03-20T12:53:09.828Z,86.89
2023-03-20T12:58:39.679Z,87.07
2023-03-20T13:04:35.832Z,87.00
2023-03-20T13:10:18.383Z,87.41
2023-03-20T13:16:09.720Z,87.66
2023-03-20T13:21:41.707Z,87.49
2023-03-20T13:27:23.626Z,86.93
2023-03-20T13:33:24.985Z,86.50
2023-03-20T13:39:01.175Z,86.23
2023-03-20T13:44:29.380Z,85.37
2023-03-20T13:50:31.569Z,84.91
2023-03-20T13:56:33.174Z,84.08
2023-03-20T14:02:34.119Z,81.65
2023-03-20T14:07:59.121Z,81.58
2023-03-20T14:13:26.085Z,81.06
2023-03-20T14:19:14.469Z,80.72
2023-03-20T14:24:40.851Z,80.68
2023-03-20T14:30:30.007Z,80.75
2023-03-20T14:36:18.954Z,81.21
2023-03-20T14:42:16.668Z,81.73
2023-03-20T14:47:52.735Z,82.07
2023-03-20T14:53:22.906Z,82.22
2023-03-20T14:58:49.550Z,82.60
2023-03-20T15:04:31.409Z,82.54
2023-03-20T15:10:00.019Z,82.60
2023-03-20T15:15:29.545Z,82.44
2023-03-20T15:20:56.808Z,82.33
2023-03-20T15:26:25.831Z,82.65
2023-03-20T15:32:12.928Z,82.75
2023-03-20T15:37:38.144Z,82.55
2023-03-20T15:43:14.164Z,82.13
2023-03-20T15:48:38.207Z,81.57
2023-03-20T15:54:08.314Z,81.75
2023-03-20T15:59:35.310Z,81.68
2023-03-20T16:05:00.096Z,81.93
2023-03-20T16:10:36.575Z,82.11
2023-03-20T16:16:02.901Z,81.95
2023-03-20T16:21:32.680Z,82.38
2023-03-20T16:26:58.809Z,82.58
2023-03-20T16:32:33.439Z,82.75
2023-03-20T16:38:01.665Z,82.54
2023-03-20T16:43:30.745Z,82.42
2023-03-20T16:48:59.466Z,82.44
2023-03-20T16:54:23.540Z,82.75
2023-03-20T16:59:48.533Z,82.98
2023-03-20T17:05:14.970Z,83.13
2023-03-20T17:10:40.942Z,83.14
2023-03-20T17:16:06.169Z,83.03
2023-03-20T17:21:30.553Z,83.10
2023-03-20T17:26:56.708Z,83.40
2023-03-20T17:32:24.356Z,83.63
2023-03-20T17:37:49.637Z,83.96
2023-03-20T17:43:15.961Z,84.12
2023-03-20T17:48:41.052Z,84.28
2023-03-20T17:54:05.873Z,84.42
2023-03-20T17:59:31.577Z,84.49
2023-03-20T18:04:55.969Z,84.49
2023-03-20T18:10:26.779Z,84.81
2023-03-20T18:15:53.919Z,85.13
2023-03-20T18:21:18.541Z,85.63
2023-03-20T18:26:44.475Z,85.77
2023-03-20T18:32:09.594Z,86.09
2023-03-20T18:37:33.715Z,86.55
2023-03-20T18:42:59.099Z,86.95
2023-03-20T18:48:25.515Z,87.40
2023-03-20T18:53:50.416Z,87.68
2023-03-20T18:59:14.801Z,87.85
2023-03-20T19:04:39.417Z,87.86
2023-03-20T19:10:03.993Z,87.93
2023-03-20T19:15:31.351Z,87.74
2023-03-20T19:20:58.402Z,87.64
2023-03-20T19:26:25.040Z,87.42
2023-03-20T19:31:49.848Z,87.44
2023-03-20T19:37:13.962Z,87.25
2023-03-20T19:42:59.861Z,87.13
2023-03-20T19:48:46.124Z,87.29
2023-03-20T19:54:14.206Z,87.31
2023-03-20T19:59:43.728Z,87.31
2023-03-20T20:05:18.366Z,87.47
2023-03-20T20:10:46.215Z,87.52
2023-03-20T20:16:10.733Z,87.24
2023-03-20T20:22:17.159Z,87.27
2023-03-20T20:27:21.933Z,87.46
2023-03-20T20:32:47.667Z,87.58
2023-03-20T20:38:44.607Z,87.81
2023-03-20T20:44:16.233Z,87.90
2023-03-20T20:49:42.208Z,88.43
2023-03-20T20:55:22.052Z,88.92
2023-03-20T21:00:54.733Z,89.49
2023-03-20T21:06:21.952Z,89.93
2023-03-20T21:11:47.197Z,90.68
2023-03-20T21:17:12.256Z,91.06
2023-03-20T21:22:38.051Z,91.29
2023-03-20T21:28:04.577Z,91.55
2023-03-20T21:33:31.941Z,91.65
2023-03-20T21:39:13.411Z,91.39
2023-03-20T21:45:34.491Z,91.40
2023-03-20T21:51:15.124Z,91.22
2023-03-20T21:56:48.979Z,91.39
2023-03-20T22:02:19.176Z,91.62
2023-03-20T22:08:18.512Z,91.60
2023-03-20T22:20:07.195Z,92.10
2023-03-20T22:25:45.918Z,92.34
2023-03-20T22:31:28.711Z,92.73
2023-03-20T22:42:52.954Z,92.98
2023-03-20T22:47:56.701Z,92.81
2023-03-20T22:53:20.628Z,92.96
2023-03-20T22:58:44.898Z,93.00
2023-03-20T23:04:09.481Z,93.19
2023-03-20T23:09:35.557Z,92.98
2023-03-20T23:15:00.032Z,92.52
2023-03-20T23:20:24.426Z,92.31
2023-03-20T23:25:48.763Z,92.29
2023-03-20T23:31:16.184Z,91.97
2023-03-20T23:36:40.439Z,91.60
2023-03-20T23:42:17.332Z,91.64
2023-03-20T23:47:46.038Z,91.56
2023-03-20T23:53:19.934Z,91.21
2023-03-20T23:58:59.464Z,91.06
